Time;durP1;ratioP1;P1;durP2;ratioP2;P2;SDS_P1;SDS_P2;PMS_P1;PMS_P2;Temp;Humidity;BMP_temperature;BMP_pressure;BME280_temperature;BME280_humidity;BME280_pressure;Samples;Min_cycle;Max_cycle;Signal;HPM_P1;HPM_P2
2023/07/03 00:00:48;;;;;;;0.20;0.20;;;16.30;99.90;;;;;;5046416;28;20392;-81
2023/07/03 00:03:14;;;;;;;0.20;0.20;;;16.30;99.90;;;;;;5018907;28;20632;-81
2023/07/03 00:05:47;;;;;;;0.10;0.10;;;16.30;99.90;;;;;;5028022;28;20072;-80
2023/07/03 00:08:15;;;;;;;0.20;0.20;;;16.30;99.90;;;;;;5047053;28;20067;-80
2023/07/03 00:10:41;;;;;;;0.10;0.10;;;16.30;99.90;;;;;;5044939;28;20044;-81
2023/07/03 00:13:08;;;;;;;0.20;0.20;;;16.30;99.90;;;;;;5022718;28;20048;-80
2023/07/03 00:15:35;;;;;;;0.20;0.20;;;16.40;99.90;;;;;;5023067;28;20049;-80
2023/07/03 00:18:02;;;;;;;0.20;0.20;;;16.30;99.90;;;;;;5030681;28;20072;-80
2023/07/03 00:20:27;;;;;;;0.20;0.20;;;16.30;99.90;;;;;;5033203;28;20141;-80
2023/07/03 00:22:54;;;;;;;0.20;0.20;;;16.30;99.90;;;;;;5029356;28;20059;-80
2023/07/03 00:25:21;;;;;;;0.10;0.10;;;16.30;99.90;;;;;;5049859;28;20041;-80
2023/07/03 00:27:47;;;;;;;0.10;0.10;;;16.30;99.90;;;;;;5027591;28;20056;-80
2023/07/03 00:30:15;;;;;;;0.20;0.20;;;16.30;99.90;;;;;;5050632;28;20696;-80
2023/07/03 00:32:41;;;;;;;0.10;0.10;;;16.30;99.80;;;;;;5045276;28;20072;-80
2023/07/03 00:35:08;;;;;;;0.10;0.10;;;16.30;99.80;;;;;;5050698;28;20048;-79
2023/07/03 00:37:34;;;;;;;0.13;0.13;;;16.30;99.90;;;;;;5046490;28;20061;-79
2023/07/03 00:40:00;;;;;;;0.20;0.20;;;16.30;99.80;;;;;;5049536;28;20052;-79
2023/07/03 00:42:27;;;;;;;0.20;0.20;;;16.30;99.80;;;;;;5048032;28;20404;-80
2023/07/03 00:44:53;;;;;;;0.10;0.10;;;16.30;99.80;;;;;;5044300;28;20080;-80
2023/07/03 00:47:19;;;;;;;0.20;0.20;;;16.30;99.90;;;;;;5048485;28;20076;-80
2023/07/03 00:49:45;;;;;;;0.20;0.20;;;16.30;99.90;;;;;;5050192;28;20041;-81
2023/07/03 00:52:12;;;;;;;0.20;0.20;;;16.30;99.90;;;;;;5049948;28;20099;-82
2023/07/03 00:54:38;;;;;;;0.17;0.17;;;16.30;99.90;;;;;;5048967;28;20045;-81
2023/07/03 00:57:05;;;;;;;0.10;0.10;;;16.30;99.90;;;;;;5046352;28;20053;-81
2023/07/03 00:59:33;;;;;;;0.10;0.10;;;16.30;99.90;;;;;;5047001;28;20393;-81
2023/07/03 01:02:07;;;;;;;0.20;0.20;;;16.30;99.90;;;;;;5048592;28;20531;-81
2023/07/03 01:04:55;;;;;;;0.17;0.17;;;16.30;99.90;;;;;;5049530;28;20045;-80
2023/07/03 01:07:25;;;;;;;0.20;0.20;;;16.20;99.90;;;;;;5048862;28;20052;-81
2023/07/03 01:10:06;;;;;;;0.10;0.10;;;16.20;99.90;;;;;;5051830;28;20587;-81
2023/07/03 01:12:35;;;;;;;0.20;0.20;;;16.20;99.90;;;;;;5029767;28;20045;-80
2023/07/03 01:15:07;;;;;;;0.20;0.20;;;16.10;99.90;;;;;;5043682;28;20455;-80
2023/07/03 01:17:35;;;;;;;0.20;0.20;;;16.10;99.90;;;;;;5044967;28;20045;-81
2023/07/03 01:20:03;;;;;;;0.20;0.20;;;16.10;99.90;;;;;;5047189;28;20052;-80
2023/07/03 01:22:36;;;;;;;0.17;0.17;;;16.10;99.90;;;;;;5045527;28;20497;-80
2023/07/03 01:25:10;;;;;;;0.20;0.20;;;16.10;99.90;;;;;;5049922;28;20396;-80
2023/07/03 01:27:39;;;;;;;0.10;0.10;;;16.10;99.90;;;;;;5044081;28;20095;-80
2023/07/03 01:30:08;;;;;;;0.20;0.20;;;16.10;99.90;;;;;;5046281;28;20179;-80
2023/07/03 01:32:36;;;;;;;0.17;0.17;;;16.10;99.90;;;;;;5046013;28;20127;-80
2023/07/03 01:35:03;;;;;;;0.20;0.20;;;16.10;99.90;;;;;;5030813;28;20465;-80
2023/07/03 01:37:33;;;;;;;0.20;0.20;;;16.10;99.90;;;;;;5049844;28;20044;-80
2023/07/03 01:40:01;;;;;;;0.20;0.20;;;16.10;99.90;;;;;;5048999;28;20448;-79
2023/07/03 01:42:29;;;;;;;0.20;0.20;;;16.10;99.90;;;;;;5047959;28;20538;-80
2023/07/03 01:44:55;;;;;;;0.10;0.10;;;16.10;99.90;;;;;;5031932;28;20048;-80
2023/07/03 01:47:21;;;;;;;0.20;0.20;;;16.10;99.90;;;;;;5029754;28;20396;-80
2023/07/03 01:49:49;;;;;;;0.20;0.20;;;16.00;99.90;;;;;;5049423;28;20122;-80
2023/07/03 01:52:21;;;;;;;0.20;0.20;;;16.10;99.90;;;;;;5026315;28;20131;-80
2023/07/03 01:54:50;;;;;;;0.20;0.20;;;16.10;99.90;;;;;;5048487;28;20048;-80
2023/07/03 01:57:32;;;;;;;0.20;0.20;;;16.10;99.90;;;;;;5030314;28;20040;-80
2023/07/03 02:00:00;;;;;;;0.20;0.20;;;16.10;99.90;;;;;;5029904;28;20124;-80
2023/07/03 02:02:29;;;;;;;0.20;0.20;;;16.00;99.90;;;;;;5026248;28;20053;-81
2023/07/03 02:04:58;;;;;;;0.20;0.20;;;16.10;99.90;;;;;;5029869;28;20608;-80
2023/07/03 02:07:26;;;;;;;0.20;0.20;;;16.10;99.90;;;;;;5030206;28;20041;-80
2023/07/03 02:09:52;;;;;;;0.20;0.20;;;16.10;99.90;;;;;;5030431;28;20049;-80
2023/07/03 02:12:18;;;;;;;0.20;0.20;;;16.00;99.90;;;;;;5030038;28;20405;-80
2023/07/03 02:14:44;;;;;;;0.20;0.20;;;16.00;99.90;;;;;;5046998;28;20048;-81
2023/07/03 02:17:10;;;;;;;0.20;0.20;;;16.00;99.90;;;;;;5045630;28;20047;-80
2023/07/03 02:19:35;;;;;;;0.20;0.20;;;16.00;99.90;;;;;;5045923;28;20060;-81
2023/07/03 02:22:02;;;;;;;0.20;0.20;;;16.00;99.90;;;;;;5028622;28;20037;-81
2023/07/03 02:24:28;;;;;;;0.10;0.10;;;16.00;99.90;;;;;;5047659;28;20132;-80
2023/07/03 02:26:54;;;;;;;0.10;0.10;;;16.00;99.90;;;;;;5026953;28;20189;-80
2023/07/03 02:29:20;;;;;;;0.20;0.20;;;15.90;99.90;;;;;;5028751;28;20048;-81
2023/07/03 02:31:46;;;;;;;0.20;0.20;;;15.90;99.90;;;;;;5047422;28;20439;-81
2023/07/03 02:34:12;;;;;;;0.20;0.20;;;15.90;99.90;;;;;;5030441;28;20519;-80
2023/07/03 02:36:39;;;;;;;0.15;0.15;;;15.90;99.90;;;;;;5048302;28;20095;-80
2023/07/03 02:39:06;;;;;;;0.20;0.20;;;15.80;99.90;;;;;;5048228;28;20094;-81
2023/07/03 02:41:33;;;;;;;0.20;0.20;;;15.80;99.90;;;;;;5029183;28;20148;-80
2023/07/03 02:43:59;;;;;;;0.20;0.20;;;15.70;99.90;;;;;;5044959;28;20072;-81
2023/07/03 02:46:25;;;;;;;0.20;0.20;;;15.70;99.90;;;;;;5027697;28;20044;-81
2023/07/03 02:48:51;;;;;;;0.10;0.10;;;15.70;99.90;;;;;;5045441;28;20033;-81
2023/07/03 02:51:17;;;;;;;0.20;0.20;;;15.70;99.90;;;;;;5044763;28;20041;-82
2023/07/03 02:53:43;;;;;;;0.20;0.20;;;15.70;99.90;;;;;;5019979;28;20068;-80
2023/07/03 02:56:09;;;;;;;0.20;0.20;;;15.70;99.90;;;;;;5029025;28;20033;-81
2023/07/03 02:58:35;;;;;;;0.20;0.20;;;15.60;99.90;;;;;;5028353;28;20129;-81
2023/07/03 03:01:01;;;;;;;0.20;0.20;;;15.60;99.90;;;;;;5029196;28;20068;-81
2023/07/03 03:03:28;;;;;;;0.10;0.10;;;15.60;99.90;;;;;;5046419;28;20162;-81
2023/07/03 03:05:55;;;;;;;0.10;0.10;;;15.60;99.90;;;;;;5029704;28;20171;-81
2023/07/03 03:08:21;;;;;;;0.13;0.13;;;15.50;99.90;;;;;;5047631;28;20049;-81
2023/07/03 03:10:48;;;;;;;0.20;0.20;;;15.50;99.90;;;;;;5027448;28;20051;-80
2023/07/03 03:13:13;;;;;;;0.20;0.20;;;15.50;99.80;;;;;;5027186;28;20048;-80
2023/07/03 03:15:40;;;;;;;0.10;0.10;;;15.50;99.70;;;;;;5048241;28;20144;-81
2023/07/03 03:18:06;;;;;;;0.10;0.10;;;15.40;99.70;;;;;;5035647;28;20040;-81
2023/07/03 03:20:32;;;;;;;0.20;0.20;;;15.40;99.60;;;;;;5046637;28;20049;-81
2023/07/03 03:22:58;;;;;;;0.17;0.17;;;15.40;99.60;;;;;;5027694;28;20051;-80
2023/07/03 03:25:24;;;;;;;0.10;0.10;;;15.40;99.60;;;;;;5022911;28;20052;-81
2023/07/03 03:27:49;;;;;;;0.10;0.10;;;15.40;99.60;;;;;;5043019;28;20045;-80
2023/07/03 03:30:15;;;;;;;0.15;0.15;;;15.40;99.50;;;;;;5028988;28;20052;-81
2023/07/03 03:32:42;;;;;;;0.10;0.10;;;15.30;99.50;;;;;;5045647;28;20052;-80
2023/07/03 03:35:08;;;;;;;0.20;0.20;;;15.30;99.50;;;;;;5027684;28;20053;-81
2023/07/03 03:37:33;;;;;;;0.20;0.20;;;15.30;99.40;;;;;;5029185;28;20045;-81
2023/07/03 03:39:59;;;;;;;0.20;0.20;;;15.30;99.40;;;;;;5045260;28;20490;-81
2023/07/03 03:42:25;;;;;;;0.10;0.10;;;15.30;99.40;;;;;;5029193;28;20048;-80
2023/07/03 03:44:51;;;;;;;0.20;0.20;;;15.20;99.30;;;;;;5046835;28;20084;-80
2023/07/03 03:47:16;;;;;;;0.20;0.20;;;15.20;99.30;;;;;;5027815;28;20118;-81
2023/07/03 03:49:42;;;;;;;0.20;0.20;;;15.20;99.30;;;;;;5047923;28;20119;-81
2023/07/03 03:52:08;;;;;;;0.17;0.17;;;15.20;99.30;;;;;;5031583;28;20063;-81
2023/07/03 03:54:33;;;;;;;0.10;0.10;;;15.20;99.40;;;;;;5049729;28;20642;-81
2023/07/03 03:56:59;;;;;;;0.20;0.20;;;15.20;99.40;;;;;;5027915;28;20052;-81
2023/07/03 03:59:25;;;;;;;0.10;0.10;;;15.20;99.40;;;;;;5031245;28;20033;-80
2023/07/03 04:01:51;;;;;;;0.10;0.10;;;15.20;99.40;;;;;;5025681;28;20491;-80
2023/07/03 04:04:17;;;;;;;0.20;0.20;;;15.20;99.40;;;;;;5050070;28;20587;-81
2023/07/03 04:06:43;;;;;;;0.10;0.10;;;15.20;99.50;;;;;;5047461;28;20812;-81
2023/07/03 04:09:09;;;;;;;0.10;0.10;;;15.20;99.50;;;;;;5049977;28;20095;-80
2023/07/03 04:11:35;;;;;;;0.10;0.10;;;15.20;99.30;;;;;;5051335;28;20049;-81
2023/07/03 04:14:01;;;;;;;0.10;0.10;;;15.20;99.60;;;;;;5032153;28;20044;-80
2023/07/03 04:16:29;;;;;;;0.10;0.10;;;15.20;99.60;;;;;;5034149;28;20056;-80
2023/07/03 04:18:55;;;;;;;0.10;0.10;;;15.20;99.60;;;;;;5046068;28;20477;-78
2023/07/03 04:21:22;;;;;;;0.10;0.10;;;15.10;99.60;;;;;;5034735;28;20048;-78
2023/07/03 04:23:48;;;;;;;0.10;0.10;;;15.10;99.70;;;;;;5050884;28;20451;-77
2023/07/03 04:26:15;;;;;;;0.10;0.10;;;15.10;99.80;;;;;;5050778;28;20045;-79
2023/07/03 04:28:41;;;;;;;0.20;0.20;;;15.20;99.80;;;;;;5049252;28;20048;-78
2023/07/03 04:31:07;;;;;;;0.20;0.20;;;15.20;99.90;;;;;;5031018;28;20068;-77
2023/07/03 04:33:33;;;;;;;0.20;0.20;;;15.10;99.90;;;;;;5034308;28;20049;-78
2023/07/03 04:35:59;;;;;;;0.10;0.10;;;15.10;99.90;;;;;;5033993;28;20083;-78
2023/07/03 04:38:24;;;;;;;0.20;0.20;;;15.20;99.90;;;;;;5052069;28;20032;-78
2023/07/03 04:40:51;;;;;;;0.10;0.10;;;15.20;99.90;;;;;;5031791;28;20053;-77
2023/07/03 04:43:17;;;;;;;0.20;0.20;;;15.20;99.90;;;;;;5049805;28;20044;-77
2023/07/03 04:45:50;;;;;;;0.10;0.10;;;15.20;99.90;;;;;;5052464;28;20060;-77
2023/07/03 04:48:16;;;;;;;0.20;0.20;;;15.30;99.90;;;;;;5033847;28;20049;-78
2023/07/03 04:50:45;;;;;;;0.10;0.10;;;15.30;99.90;;;;;;5031417;28;20049;-77
2023/07/03 04:53:11;;;;;;;0.10;0.10;;;15.30;99.90;;;;;;5051260;28;20045;-77
2023/07/03 04:55:38;;;;;;;0.15;0.15;;;15.30;99.90;;;;;;5048358;28;20049;-78
2023/07/03 04:58:04;;;;;;;0.10;0.10;;;15.30;99.90;;;;;;5049098;28;20496;-77
2023/07/03 05:00:31;;;;;;;0.20;0.20;;;15.30;99.90;;;;;;5051511;28;20055;-77
2023/07/03 05:03:02;;;;;;;0.17;0.17;;;15.30;99.90;;;;;;5051429;28;20072;-77
2023/07/03 05:05:28;;;;;;;0.20;0.20;;;15.30;99.90;;;;;;5046740;28;20051;-78
2023/07/03 05:07:54;;;;;;;0.10;0.10;;;15.30;99.90;;;;;;5031931;28;20045;-78
2023/07/03 05:10:21;;;;;;;0.10;0.10;;;15.40;99.90;;;;;;5034201;28;20056;-77
2023/07/03 05:12:47;;;;;;;0.20;0.20;;;15.40;99.90;;;;;;5032181;28;20090;-77
2023/07/03 05:15:15;;;;;;;0.20;0.20;;;15.40;99.90;;;;;;5049856;28;20041;-76
2023/07/03 05:17:41;;;;;;;0.10;0.10;;;15.40;99.90;;;;;;5032675;28;20056;-78
2023/07/03 05:20:15;;;;;;;0.10;0.10;;;15.50;99.90;;;;;;5024053;28;20052;-78
2023/07/03 05:22:42;;;;;;;0.17;0.17;;;15.50;99.90;;;;;;5026405;28;20447;-77
2023/07/03 05:25:10;;;;;;;0.20;0.20;;;15.50;99.90;;;;;;5030471;28;20048;-77
2023/07/03 05:27:36;;;;;;;0.10;0.10;;;15.60;99.90;;;;;;5046283;28;20033;-77
2023/07/03 05:30:03;;;;;;;0.10;0.10;;;15.70;99.90;;;;;;5027961;28;20455;-76
2023/07/03 05:32:29;;;;;;;0.13;0.13;;;15.70;99.90;;;;;;5043626;28;20124;-76
2023/07/03 05:34:55;;;;;;;0.10;0.10;;;15.80;99.90;;;;;;5026295;28;20116;-76
2023/07/03 05:37:20;;;;;;;0.10;0.10;;;15.90;99.90;;;;;;5026633;28;20436;-77
2023/07/03 05:39:48;;;;;;;0.10;0.10;;;15.90;99.90;;;;;;5048952;28;20041;-76
2023/07/03 05:42:18;;;;;;;0.10;0.10;;;16.00;99.90;;;;;;5049071;28;20042;-76
2023/07/03 05:44:44;;;;;;;0.20;0.20;;;16.00;99.90;;;;;;5033507;28;20045;-77
2023/07/03 05:47:11;;;;;;;0.10;0.10;;;16.00;99.90;;;;;;5030474;28;20051;-77
2023/07/03 05:49:36;;;;;;;0.17;0.17;;;16.10;99.90;;;;;;5033710;28;20068;-77
2023/07/03 05:52:02;;;;;;;0.20;0.20;;;16.00;99.90;;;;;;5048118;28;20045;-76
2023/07/03 05:54:28;;;;;;;0.20;0.20;;;16.10;99.90;;;;;;5040901;28;20583;-77
2023/07/03 05:57:05;;;;;;;0.10;0.10;;;16.10;99.90;;;;;;5047790;28;20048;-78
2023/07/03 05:59:31;;;;;;;0.20;0.20;;;16.10;99.90;;;;;;5031326;28;20055;-77
2023/07/03 06:01:57;;;;;;;0.10;0.10;;;16.00;99.90;;;;;;5025553;28;20051;-77
2023/07/03 06:04:24;;;;;;;0.20;0.20;;;16.00;99.90;;;;;;5015548;28;20079;-76
2023/07/03 06:06:55;;;;;;;0.15;0.15;;;16.00;99.90;;;;;;5027837;28;20110;-77
2023/07/03 06:09:25;;;;;;;0.20;0.20;;;16.00;99.90;;;;;;5047388;28;20036;-81
2023/07/03 06:11:51;;;;;;;0.20;0.20;;;16.00;99.90;;;;;;5040532;28;20449;-78
2023/07/03 06:14:18;;;;;;;0.20;0.20;;;16.00;99.90;;;;;;5031938;28;20037;-79
2023/07/03 06:16:49;;;;;;;0.10;0.10;;;16.10;99.90;;;;;;5032881;28;20045;-79
2023/07/03 06:19:16;;;;;;;;;;;16.10;99.90;;;;;;5020375;28;20044;-76
2023/07/03 06:21:42;;;;;;;0.20;0.20;;;16.10;99.90;;;;;;5034016;28;20019;-77
2023/07/03 06:24:09;;;;;;;0.20;0.20;;;16.10;99.90;;;;;;5022993;28;20129;-78
2023/07/03 06:26:38;;;;;;;0.10;0.10;;;16.20;99.90;;;;;;5050396;28;20715;-79
2023/07/03 06:29:05;;;;;;;0.20;0.20;;;16.20;99.90;;;;;;5029273;28;20049;-79
2023/07/03 06:31:31;;;;;;;0.20;0.20;;;16.30;99.90;;;;;;5032807;28;20049;-80
2023/07/03 06:33:57;;;;;;;0.20;0.20;;;16.30;99.90;;;;;;5059158;28;20554;-79
2023/07/03 06:36:23;;;;;;;0.20;0.20;;;16.40;99.90;;;;;;5045628;28;20045;-81
2023/07/03 06:38:53;;;;;;;0.20;0.20;;;16.50;99.90;;;;;;5040455;28;20128;-80
2023/07/03 06:41:25;;;;;;;0.10;0.10;;;16.60;99.90;;;;;;5043165;28;20052;-79
2023/07/03 06:43:51;;;;;;;0.10;0.10;;;16.60;99.90;;;;;;5040796;28;20500;-80
2023/07/03 06:46:18;;;;;;;0.20;0.20;;;16.70;99.90;;;;;;5043843;28;20080;-81
2023/07/03 06:48:43;;;;;;;0.20;0.20;;;16.80;99.90;;;;;;5044518;28;20041;-80
2023/07/03 06:51:10;;;;;;;0.10;0.10;;;16.80;99.90;;;;;;5048792;28;20076;-81
2023/07/03 06:53:36;;;;;;;0.20;0.20;;;16.80;99.90;;;;;;5038082;28;20047;-80
2023/07/03 06:56:03;;;;;;;0.20;0.20;;;16.80;99.90;;;;;;5044758;28;20049;-80
2023/07/03 06:58:31;;;;;;;0.10;0.10;;;16.70;99.90;;;;;;5045227;28;20064;-80
2023/07/03 07:00:56;;;;;;;0.20;0.20;;;16.60;99.90;;;;;;5042807;28;20072;-79
2023/07/03 07:03:23;;;;;;;0.20;0.20;;;16.50;99.90;;;;;;5041183;28;20467;-77
2023/07/03 07:05:49;;;;;;;0.10;0.10;;;16.50;99.90;;;;;;5048011;28;20053;-78
2023/07/03 07:08:17;;;;;;;0.20;0.20;;;16.50;99.90;;;;;;5036531;28;20044;-77
2023/07/03 07:10:44;;;;;;;0.20;0.20;;;16.40;99.90;;;;;;5047590;28;20044;-77
2023/07/03 07:13:12;;;;;;;0.20;0.20;;;16.40;99.90;;;;;;5046945;28;20504;-78
2023/07/03 07:15:40;;;;;;;0.10;0.10;;;16.40;99.90;;;;;;5044434;28;20053;-78
2023/07/03 07:18:08;;;;;;;0.10;0.10;;;16.40;99.90;;;;;;5046810;28;20052;-79
2023/07/03 07:20:41;;;;;;;0.20;0.20;;;16.40;99.90;;;;;;5045336;28;20168;-79
2023/07/03 07:23:08;;;;;;;0.13;0.13;;;16.30;99.90;;;;;;5040071;28;20040;-79
2023/07/03 07:25:34;;;;;;;0.20;0.20;;;16.20;99.90;;;;;;5036469;28;20560;-80
2023/07/03 07:28:01;;;;;;;0.17;0.17;;;16.20;99.90;;;;;;5042357;28;20041;-79
2023/07/03 07:30:27;;;;;;;0.20;0.20;;;16.20;99.90;;;;;;5046728;28;20040;-78
2023/07/03 07:32:53;;;;;;;0.13;0.13;;;16.30;99.90;;;;;;5048804;28;20065;-79
2023/07/03 07:35:19;;;;;;;0.20;0.20;;;16.40;99.90;;;;;;5048735;28;20045;-78
2023/07/03 07:37:45;;;;;;;0.20;0.20;;;16.40;99.90;;;;;;5041297;28;20041;-78
2023/07/03 07:40:11;;;;;;;0.20;0.20;;;16.40;99.90;;;;;;5026535;28;20052;-80
2023/07/03 07:42:38;;;;;;;0.20;0.20;;;16.50;99.90;;;;;;5029624;28;20076;-79
2023/07/03 07:45:05;;;;;;;0.20;0.20;;;16.50;99.90;;;;;;5038101;28;20056;-78
2023/07/03 07:47:32;;;;;;;0.10;0.10;;;16.50;99.90;;;;;;5046170;28;20102;-78
2023/07/03 07:49:58;;;;;;;0.10;0.10;;;16.50;99.90;;;;;;5030639;28;20045;-79
2023/07/03 07:52:24;;;;;;;0.10;0.10;;;16.60;99.90;;;;;;5031061;28;20040;-78
2023/07/03 07:54:55;;;;;;;0.10;0.10;;;16.60;99.90;;;;;;5031779;28;20124;-79
2023/07/03 07:57:20;;;;;;;0.20;0.20;;;16.70;99.90;;;;;;5046118;28;20041;-77
2023/07/03 07:59:46;;;;;;;0.15;0.15;;;16.70;99.90;;;;;;5046174;28;20090;-79
2023/07/03 08:02:12;;;;;;;0.20;0.20;;;16.70;99.90;;;;;;5031517;28;20564;-78
2023/07/03 08:04:37;;;;;;;0.10;0.10;;;16.70;99.90;;;;;;5030280;28;20037;-79
2023/07/03 08:07:03;;;;;;;0.20;0.20;;;16.80;99.90;;;;;;5028992;28;20595;-78
2023/07/03 08:09:29;;;;;;;0.10;0.10;;;16.80;99.90;;;;;;5037983;28;20041;-79
2023/07/03 08:11:55;;;;;;;0.10;0.10;;;16.80;99.90;;;;;;5023980;28;20137;-77
2023/07/03 08:14:20;;;;;;;0.13;0.13;;;16.80;99.90;;;;;;5039986;28;20041;-78
2023/07/03 08:16:46;;;;;;;0.20;0.20;;;16.80;99.90;;;;;;5043255;28;20044;-78
2023/07/03 08:19:12;;;;;;;0.10;0.10;;;16.80;99.90;;;;;;5034237;28;20045;-79
2023/07/03 08:21:38;;;;;;;0.20;0.20;;;16.90;99.90;;;;;;5020409;28;20036;-79
2023/07/03 08:24:04;;;;;;;0.10;0.10;;;16.90;99.90;;;;;;5025454;28;20045;-79
2023/07/03 08:26:31;;;;;;;0.20;0.20;;;17.00;99.90;;;;;;5040414;28;20564;-79
2023/07/03 08:28:57;;;;;;;0.10;0.10;;;17.10;99.90;;;;;;5028995;28;20080;-79
2023/07/03 08:31:23;;;;;;;0.10;0.10;;;17.10;99.90;;;;;;5041996;28;20076;-78
2023/07/03 08:33:48;;;;;;;0.20;0.20;;;17.20;99.90;;;;;;5021760;28;20064;-78
2023/07/03 08:36:14;;;;;;;0.20;0.20;;;17.20;99.90;;;;;;5038565;28;20147;-78
2023/07/03 08:38:40;;;;;;;0.10;0.10;;;17.20;99.90;;;;;;5027000;28;20044;-76
2023/07/03 08:41:12;;;;;;;0.20;0.20;;;17.30;99.90;;;;;;5024551;28;20399;-79
2023/07/03 08:43:47;;;;;;;0.17;0.17;;;17.40;99.90;;;;;;5041579;28;20052;-78
2023/07/03 08:46:19;;;;;;;0.10;0.10;;;17.50;99.90;;;;;;5027718;28;20052;-79
2023/07/03 08:48:47;;;;;;;0.20;0.20;;;17.50;99.90;;;;;;5042742;28;20129;-79
2023/07/03 08:51:18;;;;;;;0.10;0.10;;;17.60;99.90;;;;;;5043682;28;20041;-79
2023/07/03 08:53:51;;;;;;;0.17;0.17;;;17.70;99.90;;;;;;5026860;28;20041;-80
2023/07/03 08:56:24;;;;;;;0.10;0.10;;;17.80;99.90;;;;;;5018613;28;20116;-79
2023/07/03 08:58:52;;;;;;;0.20;0.20;;;17.90;99.70;;;;;;5021778;28;20127;-79
2023/07/03 09:01:36;;;;;;;0.20;0.20;;;18.00;99.60;;;;;;5032411;28;20032;-79
2023/07/03 09:04:14;;;;;;;0.15;0.15;;;18.00;99.00;;;;;;5050961;28;20102;-79
2023/07/03 09:06:53;;;;;;;0.22;0.22;;;18.00;98.30;;;;;;5024901;28;20103;-79
2023/07/03 09:09:38;;;;;;;0.10;0.10;;;17.90;98.10;;;;;;5044814;28;20037;-79
2023/07/03 09:12:26;;;;;;;0.15;0.15;;;17.80;97.90;;;;;;5023389;28;20080;-81
2023/07/03 09:15:11;;;;;;;0.20;0.20;;;17.70;97.20;;;;;;5028866;28;20049;-79
2023/07/03 09:17:38;;;;;;;0.20;0.20;;;17.70;97.20;;;;;;5028974;28;20055;-78
2023/07/03 09:20:06;;;;;;;0.17;0.17;;;17.50;97.20;;;;;;5049961;28;20041;-79
2023/07/03 09:22:54;;;;;;;0.20;0.20;;;17.40;97.30;;;;;;5034244;28;20048;-76
2023/07/03 09:25:34;;;;;;;0.20;0.20;;;17.40;97.50;;;;;;5046106;28;20415;-77
2023/07/03 09:28:01;;;;;;;0.10;0.10;;;17.30;97.70;;;;;;5045969;28;20045;-77
2023/07/03 09:30:27;;;;;;;0.20;0.20;;;17.30;97.80;;;;;;5031400;28;20629;-77
2023/07/03 09:32:53;;;;;;;0.10;0.10;;;17.30;98.10;;;;;;5050402;28;20068;-78
2023/07/03 09:35:21;;;;;;;0.17;0.17;;;17.40;98.30;;;;;;5032320;28;20041;-78
2023/07/03 09:37:50;;;;;;;0.20;0.20;;;17.30;98.20;;;;;;5028674;28;20049;-77
2023/07/03 09:40:23;;;;;;;0.20;0.20;;;17.40;98.40;;;;;;5025670;28;20135;-78
2023/07/03 09:42:49;;;;;;;0.20;0.20;;;17.40;98.60;;;;;;5032417;28;20677;-78
2023/07/03 09:45:20;;;;;;;0.20;0.20;;;17.40;98.60;;;;;;5032959;28;20044;-78
2023/07/03 09:47:50;;;;;;;;;;;17.50;98.40;;;;;;5031239;28;20056;-78
2023/07/03 09:50:23;;;;;;;0.20;0.20;;;17.50;98.70;;;;;;5031308;28;19992;-79
2023/07/03 09:52:54;;;;;;;0.20;0.20;;;17.50;98.80;;;;;;5049187;28;20047;-78
2023/07/03 09:55:21;;;;;;;0.10;0.10;;;17.50;98.80;;;;;;5031612;28;20146;-77
2023/07/03 09:57:47;;;;;;;0.20;0.20;;;17.50;98.80;;;;;;5029493;28;20114;-78
2023/07/03 10:00:17;;;;;;;0.13;0.13;;;17.50;98.90;;;;;;5046955;28;20072;-78
2023/07/03 10:02:43;;;;;;;0.17;0.17;;;17.50;99.00;;;;;;5030287;28;20408;-78
2023/07/03 10:05:18;;;;;;;0.20;0.20;;;17.60;99.10;;;;;;5032568;28;20041;-78
2023/07/03 10:07:46;;;;;;;0.15;0.15;;;17.60;99.20;;;;;;5030896;28;20610;-79
2023/07/03 10:10:19;;;;;;;0.20;0.20;;;17.60;99.10;;;;;;5044441;28;20040;-79
2023/07/03 10:12:55;;;;;;;0.20;0.20;;;17.50;99.10;;;;;;5029235;28;20080;-78
2023/07/03 10:15:25;;;;;;;0.15;0.15;;;17.40;99.10;;;;;;5029631;28;20231;-78
2023/07/03 10:17:56;;;;;;;0.20;0.20;;;17.40;99.10;;;;;;5041892;28;20119;-79
2023/07/03 10:20:36;;;;;;;0.10;0.10;;;17.30;98.90;;;;;;5023042;28;20800;-79
2023/07/03 10:23:04;;;;;;;0.10;0.10;;;17.30;98.90;;;;;;5044085;28;20080;-79
2023/07/03 10:25:39;;;;;;;0.17;0.17;;;17.30;99.10;;;;;;5020424;28;20797;-79
2023/07/03 10:28:11;;;;;;;0.20;0.20;;;17.20;99.10;;;;;;5023448;28;20049;-78
2023/07/03 10:30:39;;;;;;;0.20;0.20;;;17.10;99.10;;;;;;5051220;28;20044;-79
2023/07/03 10:33:18;;;;;;;0.20;0.20;;;17.10;99.00;;;;;;5044393;28;20577;-77
2023/07/03 10:35:47;;;;;;;0.20;0.20;;;17.00;98.90;;;;;;5048809;28;20064;-79
2023/07/03 10:38:31;;;;;;;0.13;0.13;;;17.00;99.00;;;;;;5047000;28;20511;-79
2023/07/03 10:41:07;;;;;;;0.20;0.20;;;17.00;99.10;;;;;;5048117;28;20040;-78
2023/07/03 10:43:47;;;;;;;0.10;0.10;;;17.00;99.40;;;;;;5045904;28;20053;-79
2023/07/03 10:46:21;;;;;;;0.20;0.20;;;17.10;99.50;;;;;;5050100;28;20128;-79
2023/07/03 10:48:49;;;;;;;0.10;0.10;;;17.20;99.40;;;;;;5043637;28;20037;-79
2023/07/03 10:51:31;;;;;;;0.20;0.20;;;17.20;99.40;;;;;;5047744;28;20075;-79
2023/07/03 10:54:09;;;;;;;0.20;0.20;;;17.20;99.50;;;;;;5048461;28;20369;-79
2023/07/03 10:56:38;;;;;;;0.20;0.20;;;17.20;99.50;;;;;;5048743;28;20061;-78
2023/07/03 10:59:10;;;;;;;0.20;0.20;;;17.20;99.70;;;;;;5045760;28;20045;-79
2023/07/03 11:02:05;;;;;;;0.20;0.20;;;17.10;99.30;;;;;;5049199;28;20045;-78
2023/07/03 11:04:30;;;;;;;0.10;0.10;;;17.00;99.10;;;;;;5035793;28;20057;-79
2023/07/03 11:07:30;;;;;;;0.20;0.20;;;17.00;99.20;;;;;;5046518;28;20048;-79
2023/07/03 11:10:17;;;;;;;0.20;0.20;;;17.00;99.50;;;;;;5047345;28;20048;-79
2023/07/03 11:13:06;;;;;;;0.20;0.20;;;17.00;99.70;;;;;;5044565;28;20044;-78
2023/07/03 11:15:40;;;;;;;0.20;0.20;;;17.10;99.80;;;;;;5042875;28;20045;-79
2023/07/03 11:18:27;;;;;;;0.20;0.20;;;17.30;99.90;;;;;;5047324;28;20052;-78
2023/07/03 11:21:20;;;;;;;0.10;0.10;;;17.40;99.90;;;;;;5049434;28;20382;-79
2023/07/03 11:24:17;;;;;;;0.20;0.20;;;17.60;99.90;;;;;;5047168;28;20067;-80
2023/07/03 11:26:58;;;;;;;0.20;0.20;;;17.80;99.90;;;;;;5033686;28;20139;-79
2023/07/03 11:29:25;;;;;;;0.20;0.20;;;18.00;99.90;;;;;;5030014;28;20049;-77
2023/07/03 11:31:51;;;;;;;0.20;0.20;;;18.20;99.90;;;;;;5048103;28;20056;-79
2023/07/03 11:34:20;;;;;;;0.20;0.20;;;18.40;99.90;;;;;;5032677;28;20397;-80
2023/07/03 11:36:48;;;;;;;0.13;0.13;;;18.70;99.90;;;;;;5032511;28;20049;-80
2023/07/03 11:39:24;;;;;;;0.10;0.10;;;18.70;98.90;;;;;;5026131;28;20176;-80
2023/07/03 11:42:10;;;;;;;0.10;0.10;;;18.70;98.10;;;;;;5034165;28;20038;-79
2023/07/03 11:44:42;;;;;;;0.10;0.10;;;18.60;96.90;;;;;;5030027;28;20528;-79
2023/07/03 11:47:12;;;;;;;0.20;0.20;;;18.50;96.60;;;;;;5031718;28;20049;-80
2023/07/03 11:49:44;;;;;;;0.20;0.20;;;18.40;96.50;;;;;;5049741;28;20045;-80
2023/07/03 11:52:22;;;;;;;0.20;0.20;;;18.30;96.30;;;;;;5048051;28;20048;-80
2023/07/03 11:54:59;;;;;;;0.20;0.20;;;18.30;96.30;;;;;;5031151;28;20040;-80
2023/07/03 11:57:37;;;;;;;0.20;0.20;;;18.20;96.50;;;;;;5048697;28;20518;-80
2023/07/03 12:00:27;;;;;;;0.20;0.20;;;18.10;96.20;;;;;;5031413;28;20080;-79
2023/07/03 12:03:04;;;;;;;0.20;0.20;;;18.00;96.40;;;;;;5030927;28;20602;-79
2023/07/03 12:05:45;;;;;;;0.20;0.20;;;17.90;96.80;;;;;;5031198;28;20045;-79
2023/07/03 12:08:22;;;;;;;0.20;0.20;;;18.20;97.40;;;;;;5039431;28;20049;-80
2023/07/03 12:10:54;;;;;;;0.20;0.20;;;18.40;97.50;;;;;;5033349;28;20045;-79
2023/07/03 12:13:41;;;;;;;0.20;0.20;;;18.70;96.80;;;;;;5032880;28;20044;-79
2023/07/03 12:16:19;;;;;;;0.20;0.20;;;18.70;96.30;;;;;;5035857;28;20045;-79
2023/07/03 12:18:54;;;;;;;0.20;0.20;;;18.70;96.00;;;;;;5052981;28;20041;-79
2023/07/03 12:21:21;;;;;;;0.10;0.10;;;18.60;95.70;;;;;;5050075;28;20475;-79
2023/07/03 12:23:48;;;;;;;0.20;0.20;;;18.60;95.90;;;;;;5051696;28;20153;-80
2023/07/03 12:26:15;;;;;;;0.20;0.20;;;18.50;95.60;;;;;;5026690;28;20096;-79
2023/07/03 12:28:42;;;;;;;0.20;0.20;;;18.50;95.70;;;;;;5042925;28;20072;-79
2023/07/03 12:31:09;;;;;;;0.20;0.20;;;18.50;95.80;;;;;;5029908;28;20451;-80
2023/07/03 12:33:34;;;;;;;0.20;0.20;;;18.50;95.70;;;;;;5030200;28;20052;-80
2023/07/03 12:36:00;;;;;;;0.20;0.20;;;18.40;95.90;;;;;;5034135;28;20051;-80
2023/07/03 12:38:26;;;;;;;0.20;0.20;;;18.40;95.60;;;;;;5033484;28;20037;-80
2023/07/03 12:40:51;;;;;;;0.20;0.20;;;18.40;95.30;;;;;;5051880;28;20088;-81
2023/07/03 12:43:18;;;;;;;0.20;0.20;;;18.30;95.30;;;;;;5048673;28;20040;-80
2023/07/03 12:45:51;;;;;;;0.10;0.10;;;18.20;95.10;;;;;;5050333;28;20086;-79
2023/07/03 12:48:22;;;;;;;0.10;0.10;;;18.20;95.00;;;;;;5046747;28;20049;-80
2023/07/03 12:50:56;;;;;;;0.20;0.20;;;18.20;95.00;;;;;;5037771;28;20087;-79
2023/07/03 12:53:23;;;;;;;0.20;0.20;;;18.10;95.00;;;;;;5015796;28;20048;-77
2023/07/03 12:55:58;;;;;;;0.20;0.20;;;18.10;95.00;;;;;;5031195;28;20399;-76
2023/07/03 12:58:25;;;;;;;0.20;0.20;;;18.10;95.20;;;;;;5031613;28;20068;-77